createdAt,value
2016-12-15T00:00:39.636Z,1021.71
2016-12-15T00:01:50.648Z,1021.69
2016-12-15T00:03:01.669Z,1021.73
2016-12-15T00:04:12.647Z,1021.7
2016-12-15T00:05:23.634Z,1021.68
2016-12-15T00:06:34.634Z,1021.72
2016-12-15T00:07:45.619Z,1021.74
2016-12-15T00:08:56.611Z,1021.72
2016-12-15T00:10:07.659Z,1021.69
2016-12-15T00:11:18.854Z,1021.69
2016-12-15T00:12:29.869Z,1021.7
2016-12-15T00:13:40.857Z,1021.72
2016-12-15T00:14:51.842Z,1021.77
2016-12-15T00:16:02.882Z,1021.77
2016-12-15T00:17:13.879Z,1021.77
2016-12-15T00:18:24.863Z,1021.78
2016-12-15T00:19:35.841Z,1021.81
2016-12-15T00:20:46.814Z,1021.79
2016-12-15T00:21:57.799Z,1021.79
2016-12-15T00:23:08.982Z,1021.78
2016-12-15T00:24:19.960Z,1021.77
2016-12-15T00:25:30.944Z,1021.83
2016-12-15T00:26:41.958Z,1021.82
2016-12-15T00:27:52.944Z,1021.77
2016-12-15T00:29:03.932Z,1021.8
2016-12-15T00:30:14.917Z,1021.81
2016-12-15T00:31:26.108Z,1021.79
2016-12-15T00:32:37.093Z,1021.79
2016-12-15T00:33:48.273Z,1021.77
2016-12-15T00:34:59.258Z,1021.74
2016-12-15T00:36:10.248Z,1021.76
2016-12-15T00:37:21.233Z,1021.71
2016-12-15T00:38:32.217Z,1021.71
2016-12-15T00:39:43.200Z,1021.72
2016-12-15T00:40:54.190Z,1021.67
2016-12-15T00:42:05.174Z,1021.68
2016-12-15T00:43:16.356Z,1021.73
2016-12-15T00:44:27.352Z,1021.74
2016-12-15T00:45:38.334Z,1021.7
2016-12-15T00:46:49.325Z,1021.68
2016-12-15T00:48:00.309Z,1021.61
2016-12-15T00:49:11.296Z,1021.68
2016-12-15T00:50:22.279Z,1021.6
2016-12-15T00:51:33.264Z,1021.65
2016-12-15T00:52:44.254Z,1021.65
2016-12-15T00:53:55.240Z,1021.63
2016-12-15T00:55:06.225Z,1021.69
2016-12-15T00:56:17.213Z,1021.67
2016-12-15T00:57:28.199Z,1021.68
2016-12-15T00:58:39.207Z,1021.75
2016-12-15T00:59:50.190Z,1021.72
2016-12-15T01:01:01.178Z,1021.72
2016-12-15T01:02:12.169Z,1021.7
2016-12-15T01:03:23.153Z,1021.69
2016-12-15T01:04:34.350Z,1021.71
2016-12-15T01:05:45.338Z,1021.71
2016-12-15T01:06:56.329Z,1021.74
2016-12-15T01:08:07.316Z,1021.73
2016-12-15T01:09:18.506Z,1021.75
2016-12-15T01:10:29.548Z,1021.72
2016-12-15T01:11:40.735Z,1021.72
2016-12-15T01:12:51.720Z,1021.7
2016-12-15T01:14:02.911Z,1021.75
2016-12-15T01:15:13.931Z,1021.71
2016-12-15T01:16:24.916Z,1021.69
2016-12-15T01:17:35.911Z,1021.72
2016-12-15T01:18:46.897Z,1021.73
2016-12-15T01:19:57.880Z,1021.74
2016-12-15T01:21:08.864Z,1021.73
2016-12-15T01:22:20.054Z,1021.69
2016-12-15T01:23:31.040Z,1021.73
2016-12-15T01:24:42.015Z,1021.73
2016-12-15T01:25:53.005Z,1021.79
2016-12-15T01:27:03.985Z,1021.79
2016-12-15T01:28:14.970Z,1021.78
2016-12-15T01:29:25.956Z,1021.78
2016-12-15T01:30:36.949Z,1021.77
2016-12-15T01:31:47.937Z,1021.8
2016-12-15T01:32:58.930Z,1021.78
2016-12-15T01:34:09.918Z,1021.78
2016-12-15T01:35:20.960Z,1021.78
2016-12-15T01:36:31.938Z,1021.78
2016-12-15T01:37:42.918Z,1021.77
2016-12-15T01:38:53.898Z,1021.76
2016-12-15T01:40:05.086Z,1021.76
2016-12-15T01:41:16.071Z,1021.78
2016-12-15T01:42:27.055Z,1021.75
2016-12-15T01:43:38.039Z,1021.75
2016-12-15T01:44:49.026Z,1021.77
2016-12-15T01:46:00.015Z,1021.71
2016-12-15T01:47:11.027Z,1021.74
2016-12-15T01:48:22.018Z,1021.72
2016-12-15T01:49:33.210Z,1021.72
2016-12-15T01:50:44.448Z,1021.73
2016-12-15T01:51:55.635Z,1021.74
2016-12-15T01:53:06.624Z,1021.8
2016-12-15T01:54:17.611Z,1021.79
2016-12-15T01:55:28.602Z,1021.8
2016-12-15T01:56:39.615Z,1021.81
2016-12-15T01:57:50.603Z,1021.81
2016-12-15T01:59:01.592Z,1021.78
2016-12-15T02:00:12.574Z,1021.77
2016-12-15T02:01:23.562Z,1021.77
2016-12-15T02:02:34.555Z,1021.8
2016-12-15T02:03:45.545Z,1021.81
2016-12-15T02:04:56.535Z,1021.81
2016-12-15T02:06:07.727Z,1021.77
2016-12-15T02:07:18.910Z,1021.8
2016-12-15T02:08:30.092Z,1021.76
2016-12-15T02:09:41.277Z,1021.76
2016-12-15T02:10:52.267Z,1021.77
2016-12-15T02:12:03.257Z,1021.76
2016-12-15T02:13:14.269Z,1021.78
2016-12-15T02:14:25.257Z,1021.76
2016-12-15T02:15:36.439Z,1021.8
2016-12-15T02:16:47.423Z,1021.78
2016-12-15T02:17:58.614Z,1021.8
2016-12-15T02:19:09.794Z,1021.79
2016-12-15T02:20:20.973Z,1021.8
2016-12-15T02:21:32.369Z,1021.81
2016-12-15T02:22:43.357Z,1021.87
2016-12-15T02:23:54.353Z,1021.86
2016-12-15T02:25:05.347Z,1021.84
2016-12-15T02:26:16.329Z,1021.85
2016-12-15T02:27:27.322Z,1021.85
2016-12-15T02:28:38.324Z,1021.82
2016-12-15T02:29:49.314Z,1021.9
2016-12-15T02:31:00.509Z,1021.92
2016-12-15T02:32:11.531Z,1021.92
2016-12-15T02:33:22.523Z,1021.93
2016-12-15T02:34:33.734Z,1021.94
2016-12-15T02:35:44.720Z,1021.91
2016-12-15T02:36:55.705Z,1021.87
2016-12-15T02:38:06.892Z,1021.92
2016-12-15T02:39:17.903Z,1021.95
2016-12-15T02:40:28.937Z,1021.92
2016-12-15T02:41:39.924Z,1021.92
2016-12-15T02:42:50.914Z,1021.92
2016-12-15T02:44:01.907Z,1021.94
2016-12-15T02:45:12.901Z,1021.91
2016-12-15T02:46:23.890Z,1021.87
2016-12-15T02:47:35.081Z,1021.88
2016-12-15T02:48:46.069Z,1021.85
2016-12-15T02:49:57.056Z,1021.87
2016-12-15T02:51:08.092Z,1021.85
2016-12-15T02:52:19.073Z,1021.95
2016-12-15T02:53:30.252Z,1021.88
2016-12-15T02:54:41.243Z,1021.92
2016-12-15T02:55:52.234Z,1021.9
2016-12-15T02:57:03.214Z,1021.92
2016-12-15T02:58:14.204Z,1021.94
2016-12-15T02:59:25.200Z,1021.9
2016-12-15T03:00:36.193Z,1021.88
2016-12-15T03:01:47.180Z,1021.89
2016-12-15T03:02:58.573Z,1021.9
2016-12-15T03:04:09.561Z,1021.86
2016-12-15T03:05:20.596Z,1021.88
2016-12-15T03:06:31.586Z,1021.88
2016-12-15T03:07:42.588Z,1021.82
2016-12-15T03:08:53.582Z,1021.85
2016-12-15T03:10:04.578Z,1021.81
2016-12-15T03:11:15.568Z,1021.86
2016-12-15T03:12:26.553Z,1021.83
2016-12-15T03:13:37.549Z,1021.81
2016-12-15T03:14:48.568Z,1021.79
2016-12-15T03:15:59.752Z,1021.8
2016-12-15T03:17:10.743Z,1021.8
2016-12-15T03:18:21.731Z,1021.82
2016-12-15T03:19:32.714Z,1021.85
2016-12-15T03:20:43.703Z,1021.87
2016-12-15T03:21:54.686Z,1021.82
2016-12-15T03:23:05.675Z,1021.83
2016-12-15T03:24:16.665Z,1021.83
2016-12-15T03:25:27.652Z,1021.8
2016-12-15T03:26:38.648Z,1021.83
2016-12-15T03:27:49.624Z,1021.85
2016-12-15T03:29:00.612Z,1021.89
2016-12-15T03:30:11.603Z,1021.85
2016-12-15T03:31:22.584Z,1021.88
2016-12-15T03:32:33.579Z,1021.85
2016-12-15T03:33:44.558Z,1021.86
2016-12-15T03:34:55.538Z,1021.83
2016-12-15T03:36:06.539Z,1021.87
2016-12-15T03:37:17.724Z,1021.85
2016-12-15T03:38:28.907Z,1021.91
2016-12-15T03:39:40.093Z,1021.86
2016-12-15T03:40:51.088Z,1021.87
2016-12-15T03:42:02.071Z,1021.88
2016-12-15T03:43:13.259Z,1021.87
2016-12-15T03:44:24.253Z,1021.86
2016-12-15T03:45:35.236Z,1021.86
2016-12-15T03:46:46.231Z,1021.86
2016-12-15T03:47:57.219Z,1021.87
2016-12-15T03:49:08.399Z,1021.83
2016-12-15T03:50:19.389Z,1021.84
2016-12-15T03:51:30.413Z,1021.78
2016-12-15T03:52:41.389Z,1021.77
2016-12-15T03:53:52.374Z,1021.79
2016-12-15T03:55:03.365Z,1021.77
2016-12-15T03:56:14.560Z,1021.77
2016-12-15T03:57:25.551Z,1021.77
2016-12-15T03:58:36.744Z,1021.77
2016-12-15T03:59:47.726Z,1021.74
2016-12-15T04:00:58.716Z,1021.81
2016-12-15T04:02:09.698Z,1021.82
2016-12-15T04:03:20.688Z,1021.8
2016-12-15T04:04:31.673Z,1021.85
2016-12-15T04:05:42.710Z,1021.84
2016-12-15T04:06:53.695Z,1021.82
2016-12-15T04:08:04.680Z,1021.78
2016-12-15T04:09:15.869Z,1021.76
2016-12-15T04:10:26.859Z,1021.72
2016-12-15T04:11:37.893Z,1021.73
2016-12-15T04:12:48.879Z,1021.7
2016-12-15T04:13:59.870Z,1021.68
2016-12-15T04:15:11.059Z,1021.7
2016-12-15T04:16:22.040Z,1021.74
2016-12-15T04:17:33.277Z,1021.74
2016-12-15T04:18:44.265Z,1021.69
2016-12-15T04:19:55.251Z,1021.74
2016-12-15T04:21:06.437Z,1021.74
2016-12-15T04:22:17.443Z,1021.74
2016-12-15T04:23:28.486Z,1021.73
2016-12-15T04:24:39.472Z,1021.74
2016-12-15T04:25:50.457Z,1021.74
2016-12-15T04:27:01.448Z,1021.77
2016-12-15T04:28:12.435Z,1021.8
2016-12-15T04:29:23.467Z,1021.78
2016-12-15T04:30:34.650Z,1021.75
2016-12-15T04:31:45.645Z,1021.79
2016-12-15T04:32:56.642Z,1021.78
2016-12-15T04:34:07.626Z,1021.77
2016-12-15T04:35:18.664Z,1021.71
2016-12-15T04:36:29.853Z,1021.71
2016-12-15T04:37:41.039Z,1021.75
2016-12-15T04:38:52.015Z,1021.76
2016-12-15T04:40:03.195Z,1021.77
2016-12-15T04:41:14.432Z,1021.74
2016-12-15T04:42:25.421Z,1021.75
2016-12-15T04:43:36.607Z,1021.71
2016-12-15T04:44:47.625Z,1021.68
2016-12-15T04:45:58.637Z,1021.68
2016-12-15T04:47:09.669Z,1021.72
2016-12-15T04:48:20.673Z,1021.72
2016-12-15T04:49:31.659Z,1021.74
2016-12-15T04:50:42.841Z,1021.76
2016-12-15T04:51:54.030Z,1021.75
2016-12-15T04:53:05.069Z,1021.78
2016-12-15T04:54:16.059Z,1021.77
2016-12-15T04:55:27.045Z,1021.79
2016-12-15T04:56:38.031Z,1021.81
2016-12-15T04:57:49.218Z,1021.8
2016-12-15T04:59:00.250Z,1021.8
2016-12-15T05:00:11.436Z,1021.83
2016-12-15T05:01:22.421Z,1021.82
2016-12-15T05:02:33.411Z,1021.83
2016-12-15T05:03:44.394Z,1021.85
2016-12-15T05:04:55.668Z,1021.84
2016-12-15T05:06:06.652Z,1021.85
2016-12-15T05:07:18.040Z,1021.84
2016-12-15T05:08:29.024Z,1021.86
2016-12-15T05:09:40.020Z,1021.87
2016-12-15T05:10:51.009Z,1021.86
2016-12-15T05:12:02.204Z,1021.86
2016-12-15T05:13:13.191Z,1021.82
2016-12-15T05:14:24.175Z,1021.83
2016-12-15T05:15:35.363Z,1021.86
2016-12-15T05:16:46.343Z,1021.83
2016-12-15T05:17:57.330Z,1021.86
2016-12-15T05:19:08.318Z,1021.83
2016-12-15T05:20:19.304Z,1021.81
2016-12-15T05:21:30.284Z,1021.83
2016-12-15T05:22:41.271Z,1021.87
2016-12-15T05:23:52.258Z,1021.91
2016-12-15T05:25:03.302Z,1021.9
2016-12-15T05:26:14.279Z,1021.89
2016-12-15T05:27:25.465Z,1021.89
2016-12-15T05:28:36.445Z,1021.9
2016-12-15T05:29:47.444Z,1021.9
2016-12-15T05:30:58.427Z,1021.92
2016-12-15T05:32:09.616Z,1021.92
2016-12-15T05:33:20.804Z,1021.91
2016-12-15T05:34:31.823Z,1021.94
2016-12-15T05:35:42.809Z,1021.92
2016-12-15T05:36:53.791Z,1021.99
2016-12-15T05:38:04.993Z,1021.96
2016-12-15T05:39:16.384Z,1021.98
2016-12-15T05:40:27.360Z,1022.03
2016-12-15T05:41:38.347Z,1021.99
2016-12-15T05:42:49.353Z,1021.97
2016-12-15T05:44:00.339Z,1022.02
2016-12-15T05:45:11.359Z,1021.99
2016-12-15T05:46:22.345Z,1022
2016-12-15T05:47:33.326Z,1022
2016-12-15T05:48:44.314Z,1021.99
2016-12-15T05:49:55.297Z,1021.99
2016-12-15T05:51:06.478Z,1021.98
2016-12-15T05:52:17.463Z,1022
2016-12-15T05:53:28.643Z,1022
2016-12-15T05:54:39.631Z,1021.94
2016-12-15T05:55:50.613Z,1021.95
2016-12-15T05:57:01.808Z,1021.99
2016-12-15T05:58:12.995Z,1021.93
2016-12-15T05:59:23.979Z,1021.93
2016-12-15T06:00:35.014Z,1021.98
2016-12-15T06:01:46.243Z,1021.99
2016-12-15T06:02:57.231Z,1022
2016-12-15T06:04:08.212Z,1021.98
2016-12-15T06:05:19.418Z,1021.97
2016-12-15T06:06:30.455Z,1022.01
2016-12-15T06:07:41.444Z,1021.97
2016-12-15T06:08:52.431Z,1022.01
2016-12-15T06:10:03.422Z,1021.94
2016-12-15T06:11:14.412Z,1021.98
2016-12-15T06:12:25.447Z,1021.98
2016-12-15T06:13:36.430Z,1021.93
2016-12-15T06:14:47.411Z,1021.98
2016-12-15T06:15:58.398Z,1021.97
2016-12-15T06:17:09.381Z,1022
2016-12-15T06:18:20.415Z,1021.98
2016-12-15T06:19:31.394Z,1022
2016-12-15T06:20:42.378Z,1022.04
2016-12-15T06:21:53.394Z,1022.03
2016-12-15T06:23:04.586Z,1022.02
2016-12-15T06:24:15.624Z,1022.03
2016-12-15T06:25:26.649Z,1022.05
2016-12-15T06:26:37.632Z,1022.05
2016-12-15T06:27:48.632Z,1022.08
2016-12-15T06:28:59.622Z,1022.08
2016-12-15T06:30:10.615Z,1022.11
2016-12-15T06:31:21.608Z,1022.11
2016-12-15T06:32:32.597Z,1022.11
2016-12-15T06:33:43.581Z,1022.14
2016-12-15T06:34:54.565Z,1022.13
2016-12-15T06:36:05.550Z,1022.15
2016-12-15T06:37:16.567Z,1022.14
2016-12-15T06:38:27.557Z,1022.18
2016-12-15T06:39:38.546Z,1022.17
2016-12-15T06:40:49.538Z,1022.14
2016-12-15T06:42:00.522Z,1022.17
2016-12-15T06:43:11.510Z,1022.19
2016-12-15T06:44:22.491Z,1022.23
2016-12-15T06:45:33.485Z,1022.22
2016-12-15T06:46:44.466Z,1022.21
2016-12-15T06:47:55.454Z,1022.18
2016-12-15T06:49:06.440Z,1022.18
2016-12-15T06:50:17.469Z,1022.19
2016-12-15T06:51:28.462Z,1022.17
2016-12-15T06:52:39.445Z,1022.18
2016-12-15T06:53:50.428Z,1022.18
2016-12-15T06:55:01.417Z,1022.16
2016-12-15T06:56:12.451Z,1022.17
2016-12-15T06:57:23.437Z,1022.13
2016-12-15T06:58:34.421Z,1022.17
2016-12-15T06:59:45.428Z,1022.2
2016-12-15T07:00:56.410Z,1022.2
2016-12-15T07:02:07.441Z,1022.22
2016-12-15T07:03:18.424Z,1022.21
2016-12-15T07:04:29.415Z,1022.23
2016-12-15T07:05:40.601Z,1022.23
2016-12-15T07:06:51.583Z,1022.23
2016-12-15T07:08:02.622Z,1022.22
2016-12-15T07:09:13.614Z,1022.23
2016-12-15T07:10:24.786Z,1022.25
2016-12-15T07:11:35.768Z,1022.24
2016-12-15T07:12:46.751Z,1022.3
2016-12-15T07:13:57.787Z,1022.29
2016-12-15T07:15:08.760Z,1022.29
2016-12-15T07:16:19.745Z,1022.32
2016-12-15T07:17:30.728Z,1022.33
2016-12-15T07:18:41.711Z,1022.34
2016-12-15T07:19:52.750Z,1022.33
2016-12-15T07:21:03.736Z,1022.29
2016-12-15T07:22:14.913Z,1022.26
2016-12-15T07:23:25.895Z,1022.3
2016-12-15T07:24:36.878Z,1022.3
2016-12-15T07:25:47.869Z,1022.29
2016-12-15T07:26:58.866Z,1022.28
2016-12-15T07:28:09.851Z,1022.27
2016-12-15T07:29:20.839Z,1022.26
2016-12-15T07:30:31.824Z,1022.27
2016-12-15T07:31:43.203Z,1022.26
2016-12-15T07:32:54.194Z,1022.3
2016-12-15T07:34:05.188Z,1022.25
2016-12-15T07:35:16.367Z,1022.29
2016-12-15T07:36:27.351Z,1022.33
2016-12-15T07:37:38.327Z,1022.29
2016-12-15T07:38:49.302Z,1022.28
2016-12-15T07:40:00.291Z,1022.27
2016-12-15T07:41:11.270Z,1022.25
2016-12-15T07:42:22.258Z,1022.28
2016-12-15T07:43:33.264Z,1022.28
2016-12-15T07:44:44.241Z,1022.31
2016-12-15T07:45:55.425Z,1022.33
2016-12-15T07:47:06.617Z,1022.29
2016-12-15T07:48:17.602Z,1022.32
2016-12-15T07:49:28.581Z,1022.33
2016-12-15T07:50:39.993Z,1022.32
2016-12-15T07:51:50.974Z,1022.35
2016-12-15T07:53:01.961Z,1022.33
2016-12-15T07:54:13.141Z,1022.35
2016-12-15T07:55:24.534Z,1022.35
2016-12-15T07:56:35.518Z,1022.29
2016-12-15T07:57:46.537Z,1022.37
2016-12-15T07:58:57.518Z,1022.36
2016-12-15T08:00:08.500Z,1022.34
2016-12-15T08:01:19.481Z,1022.35
2016-12-15T08:02:30.454Z,1022.4
2016-12-15T08:03:41.442Z,1022.39
2016-12-15T08:04:52.423Z,1022.42
2016-12-15T08:06:03.605Z,1022.4
2016-12-15T08:07:14.589Z,1022.45
2016-12-15T08:08:25.577Z,1022.48
2016-12-15T08:09:36.573Z,1022.43
2016-12-15T08:10:47.557Z,1022.48
2016-12-15T08:11:58.749Z,1022.48
2016-12-15T08:13:09.728Z,1022.45
2016-12-15T08:14:20.917Z,1022.48
2016-12-15T08:15:31.902Z,1022.52
2016-12-15T08:16:42.893Z,1022.49
2016-12-15T08:17:53.909Z,1022.49
2016-12-15T08:19:04.897Z,1022.49
2016-12-15T08:20:15.874Z,1022.53
2016-12-15T08:21:26.864Z,1022.54
2016-12-15T08:22:37.843Z,1022.54
2016-12-15T08:23:49.033Z,1022.57
2016-12-15T08:25:00.025Z,1022.54
2016-12-15T08:26:11.011Z,1022.53
2016-12-15T08:27:21.994Z,1022.58
2016-12-15T08:28:33.204Z,1022.58
2016-12-15T08:29:44.187Z,1022.55
2016-12-15T08:30:55.178Z,1022.55
2016-12-15T08:32:06.173Z,1022.59
2016-12-15T08:33:17.162Z,1022.61
2016-12-15T08:34:28.161Z,1022.61
2016-12-15T08:35:39.151Z,1022.63
2016-12-15T08:36:50.141Z,1022.66
2016-12-15T08:38:01.131Z,1022.69
2016-12-15T08:39:12.323Z,1022.7
2016-12-15T08:40:23.525Z,1022.68
2016-12-15T08:41:34.503Z,1022.66
2016-12-15T08:42:45.690Z,1022.74
2016-12-15T08:43:56.694Z,1022.73
2016-12-15T08:45:07.672Z,1022.74
2016-12-15T08:46:18.658Z,1022.73
2016-12-15T08:47:29.850Z,1022.75
2016-12-15T08:48:40.827Z,1022.66
2016-12-15T08:49:51.816Z,1022.73
2016-12-15T08:51:03.064Z,1022.72
2016-12-15T08:52:14.052Z,1022.71
2016-12-15T08:53:25.042Z,1022.73
2016-12-15T08:54:36.053Z,1022.78
2016-12-15T08:55:47.034Z,1022.78
2016-12-15T08:56:58.020Z,1022.7
2016-12-15T08:58:09.015Z,1022.77
2016-12-15T08:59:20.202Z,1022.75
2016-12-15T09:00:31.579Z,1022.75
2016-12-15T09:01:42.573Z,1022.77
2016-12-15T09:02:53.576Z,1022.73
2016-12-15T09:04:04.566Z,1022.76
2016-12-15T09:05:15.556Z,1022.75
2016-12-15T09:06:26.550Z,1022.78
2016-12-15T09:07:37.543Z,1022.8
2016-12-15T09:08:48.537Z,1022.77
2016-12-15T09:09:59.528Z,1022.84
2016-12-15T09:11:10.723Z,1022.84
2016-12-15T09:12:21.718Z,1022.85
2016-12-15T09:13:32.709Z,1022.89
2016-12-15T09:14:43.698Z,1022.84
2016-12-15T09:15:54.685Z,1022.86
2016-12-15T09:17:05.680Z,1022.85
2016-12-15T09:18:16.897Z,1022.84
2016-12-15T09:19:28.287Z,1022.86
2016-12-15T09:20:39.283Z,1022.86
2016-12-15T09:21:50.268Z,1022.85
2016-12-15T09:23:01.295Z,1022.83
2016-12-15T09:24:12.279Z,1022.84
2016-12-15T09:25:23.266Z,1022.84
2016-12-15T09:26:34.257Z,1022.81
2016-12-15T09:27:45.447Z,1022.84
2016-12-15T09:28:56.435Z,1022.84
2016-12-15T09:30:07.431Z,1022.77
2016-12-15T09:31:18.433Z,1022.83
2016-12-15T09:32:29.430Z,1022.79
2016-12-15T09:33:40.428Z,1022.81
2016-12-15T09:34:51.427Z,1022.83
2016-12-15T09:36:02.437Z,1022.75
2016-12-15T09:37:13.422Z,1022.76
2016-12-15T09:38:24.413Z,1022.79
2016-12-15T09:39:35.407Z,1022.76
2016-12-15T09:40:46.409Z,1022.76
2016-12-15T09:41:57.598Z,1022.8
2016-12-15T09:43:08.593Z,1022.81
2016-12-15T09:44:19.591Z,1022.79
2016-12-15T09:45:30.587Z,1022.82
2016-12-15T09:46:41.593Z,1022.8
2016-12-15T09:47:52.582Z,1022.8
2016-12-15T09:49:03.571Z,1022.81
2016-12-15T09:50:14.618Z,1022.84
2016-12-15T09:51:25.621Z,1022.83
2016-12-15T09:52:36.632Z,1022.84
2016-12-15T09:53:47.626Z,1022.88
2016-12-15T09:54:58.624Z,1022.87
2016-12-15T09:56:09.667Z,1022.9
2016-12-15T09:57:20.652Z,1022.89
2016-12-15T09:58:31.682Z,1022.9
2016-12-15T09:59:42.682Z,1022.89
2016-12-15T10:00:53.679Z,1022.88
2016-12-15T10:02:04.932Z,1022.89
2016-12-15T10:03:15.924Z,1022.89
2016-12-15T10:04:26.919Z,1022.89
2016-12-15T10:05:37.942Z,1022.87
2016-12-15T10:06:48.970Z,1022.85
2016-12-15T10:08:00.015Z,1022.85
2016-12-15T10:09:11.002Z,1022.84
2016-12-15T10:10:22.399Z,1022.81
2016-12-15T10:11:33.398Z,1022.82
2016-12-15T10:12:44.389Z,1022.86
2016-12-15T10:13:55.445Z,1022.79
2016-12-15T10:15:06.449Z,1022.79
2016-12-15T10:16:17.450Z,1022.77
2016-12-15T10:17:28.448Z,1022.81
2016-12-15T10:18:39.444Z,1022.78
2016-12-15T10:19:50.481Z,1022.79
2016-12-15T10:21:01.699Z,1022.8
2016-12-15T10:22:12.702Z,1022.78
2016-12-15T10:23:23.897Z,1022.79
2016-12-15T10:24:34.887Z,1022.75
2016-12-15T10:25:45.951Z,1022.69
2016-12-15T10:26:56.956Z,1022.69
2016-12-15T10:28:07.958Z,1022.65
2016-12-15T10:29:19.166Z,1022.64
2016-12-15T10:30:30.163Z,1022.64
2016-12-15T10:31:41.167Z,1022.64
2016-12-15T10:32:52.166Z,1022.68
2016-12-15T10:34:03.165Z,1022.66
2016-12-15T10:35:14.218Z,1022.62
2016-12-15T10:36:25.213Z,1022.6
2016-12-15T10:37:36.212Z,1022.6
2016-12-15T10:38:47.207Z,1022.57
2016-12-15T10:39:58.404Z,1022.56
2016-12-15T10:41:09.463Z,1022.53
2016-12-15T10:42:20.455Z,1022.53
2016-12-15T10:43:31.453Z,1022.55
2016-12-15T10:44:42.457Z,1022.54
2016-12-15T10:45:53.469Z,1022.59
2016-12-15T10:47:04.472Z,1022.57
2016-12-15T10:48:15.692Z,1022.6
2016-12-15T10:49:26.693Z,1022.57
2016-12-15T10:50:37.682Z,1022.6
2016-12-15T10:51:48.680Z,1022.59
2016-12-15T10:52:59.677Z,1022.59
2016-12-15T10:54:10.675Z,1022.59
2016-12-15T10:55:21.670Z,1022.55
2016-12-15T10:56:32.677Z,1022.57
2016-12-15T10:57:43.675Z,1022.59
2016-12-15T10:58:54.665Z,1022.56
2016-12-15T11:00:05.657Z,1022.61
2016-12-15T11:01:17.052Z,1022.56
2016-12-15T11:02:28.052Z,1022.59
2016-12-15T11:03:39.246Z,1022.59
2016-12-15T11:04:50.245Z,1022.58
2016-12-15T11:06:01.446Z,1022.51
2016-12-15T11:07:12.448Z,1022.56
2016-12-15T11:08:23.444Z,1022.58
2016-12-15T11:09:34.437Z,1022.54
2016-12-15T11:10:45.425Z,1022.5
2016-12-15T11:11:56.434Z,1022.48
2016-12-15T11:13:07.427Z,1022.51
2016-12-15T11:14:18.420Z,1022.47
2016-12-15T11:15:29.414Z,1022.43
2016-12-15T11:16:40.811Z,1022.45
2016-12-15T11:17:51.808Z,1022.48
2016-12-15T11:19:02.825Z,1022.49
2016-12-15T11:20:13.809Z,1022.47
2016-12-15T11:21:24.807Z,1022.52
2016-12-15T11:22:35.812Z,1022.45
2016-12-15T11:23:46.816Z,1022.4
2016-12-15T11:24:57.840Z,1022.37
2016-12-15T11:26:08.882Z,1022.37
2016-12-15T11:27:19.877Z,1022.34
2016-12-15T11:28:30.872Z,1022.31
2016-12-15T11:29:41.875Z,1022.25
2016-12-15T11:30:52.877Z,1022.32
2016-12-15T11:32:03.873Z,1022.28
2016-12-15T11:33:15.077Z,1022.28
2016-12-15T11:34:26.066Z,1022.27
2016-12-15T11:35:37.062Z,1022.29
2016-12-15T11:36:48.055Z,1022.29
2016-12-15T11:37:59.048Z,1022.3
2016-12-15T11:39:10.034Z,1022.27
2016-12-15T11:40:21.217Z,1022.3
2016-12-15T11:41:32.410Z,1022.25
2016-12-15T11:42:43.607Z,1022.25
2016-12-15T11:43:54.605Z,1022.17
2016-12-15T11:45:05.598Z,1022.19
2016-12-15T11:46:16.593Z,1022.17
2016-12-15T11:47:27.576Z,1022.11
2016-12-15T11:48:38.565Z,1022.07
2016-12-15T11:49:49.551Z,1022.12
2016-12-15T11:51:00.539Z,1022.08
2016-12-15T11:52:11.562Z,1022.12
2016-12-15T11:53:22.545Z,1022.1
2016-12-15T11:54:33.740Z,1022.1
2016-12-15T11:55:44.787Z,1022.11
2016-12-15T11:56:55.784Z,1022.06
2016-12-15T11:58:06.775Z,1022.07
2016-12-15T11:59:17.761Z,1022.08
2016-12-15T12:00:28.750Z,1022.1
2016-12-15T12:01:39.733Z,1022.08
2016-12-15T12:02:50.714Z,1022.02
2016-12-15T12:04:01.712Z,1022.01
2016-12-15T12:05:13.105Z,1022.03
2016-12-15T12:06:24.087Z,1022.03
2016-12-15T12:07:35.078Z,1022.01
2016-12-15T12:08:46.070Z,1022
2016-12-15T12:09:57.052Z,1022.03
2016-12-15T12:11:08.085Z,1021.97
2016-12-15T12:12:19.076Z,1021.97
2016-12-15T12:13:30.069Z,1021.95
2016-12-15T12:14:41.054Z,1021.96
2016-12-15T12:15:52.522Z,1021.94
2016-12-15T12:17:03.523Z,1021.97
2016-12-15T12:18:14.508Z,1021.98
2016-12-15T12:19:25.492Z,1021.93
2016-12-15T12:20:36.478Z,1021.96
2016-12-15T12:21:47.526Z,1021.92
2016-12-15T12:22:58.515Z,1021.9
2016-12-15T12:24:09.502Z,1021.88
2016-12-15T12:25:20.484Z,1021.87
2016-12-15T12:26:31.470Z,1021.91
2016-12-15T12:27:42.519Z,1021.88
2016-12-15T12:28:53.514Z,1021.87
2016-12-15T12:30:04.902Z,1021.87
2016-12-15T12:31:15.893Z,1021.87
2016-12-15T12:32:26.878Z,1021.87
2016-12-15T12:33:37.914Z,1021.88
2016-12-15T12:34:48.896Z,1021.88
2016-12-15T12:36:00.087Z,1021.87
2016-12-15T12:37:11.091Z,1021.86
2016-12-15T12:38:22.084Z,1021.91
2016-12-15T12:39:33.118Z,1021.88
2016-12-15T12:40:44.106Z,1021.86
2016-12-15T12:41:55.286Z,1021.84
2016-12-15T12:43:06.279Z,1021.8
2016-12-15T12:44:17.264Z,1021.88
2016-12-15T12:45:28.304Z,1021.81
2016-12-15T12:46:39.298Z,1021.88
2016-12-15T12:47:50.291Z,1021.86
2016-12-15T12:49:01.284Z,1021.82
2016-12-15T12:50:12.281Z,1021.82
2016-12-15T12:51:23.319Z,1021.81
2016-12-15T12:52:34.312Z,1021.81
2016-12-15T12:53:45.491Z,1021.8
2016-12-15T12:54:56.683Z,1021.75
2016-12-15T12:56:07.877Z,1021.71
2016-12-15T12:57:18.923Z,1021.74
2016-12-15T12:58:30.115Z,1021.74
2016-12-15T12:59:41.107Z,1021.74
2016-12-15T13:00:52.089Z,1021.65
2016-12-15T13:02:03.496Z,1021.68
2016-12-15T13:03:14.531Z,1021.64
2016-12-15T13:04:25.512Z,1021.62
2016-12-15T13:05:36.512Z,1021.61
2016-12-15T13:06:47.539Z,1021.62
2016-12-15T13:07:58.538Z,1021.61
2016-12-15T13:09:09.577Z,1021.62
2016-12-15T13:10:20.758Z,1021.64
2016-12-15T13:11:31.740Z,1021.66
2016-12-15T13:12:42.728Z,1021.65
2016-12-15T13:13:53.716Z,1021.61
2016-12-15T13:15:04.754Z,1021.69
2016-12-15T13:16:15.737Z,1021.65
2016-12-15T13:17:26.727Z,1021.67
2016-12-15T13:18:37.721Z,1021.64
2016-12-15T13:19:48.708Z,1021.64
2016-12-15T13:20:59.742Z,1021.66
2016-12-15T13:22:10.722Z,1021.66
2016-12-15T13:23:21.712Z,1021.65
2016-12-15T13:24:32.688Z,1021.67
2016-12-15T13:25:43.871Z,1021.63
2016-12-15T13:26:55.128Z,1021.61
2016-12-15T13:28:06.121Z,1021.61
2016-12-15T13:29:17.310Z,1021.58
2016-12-15T13:30:28.304Z,1021.58
2016-12-15T13:31:39.302Z,1021.58
2016-12-15T13:32:50.340Z,1021.56
2016-12-15T13:34:01.331Z,1021.53
2016-12-15T13:35:12.321Z,1021.56
2016-12-15T13:36:23.313Z,1021.61
2016-12-15T13:37:34.301Z,1021.52
2016-12-15T13:38:45.539Z,1021.52
2016-12-15T13:39:56.524Z,1021.55
2016-12-15T13:41:07.518Z,1021.49
2016-12-15T13:42:18.703Z,1021.49
2016-12-15T13:43:29.931Z,1021.51
2016-12-15T13:44:40.970Z,1021.5
2016-12-15T13:45:51.958Z,1021.52
2016-12-15T13:47:02.955Z,1021.52
2016-12-15T13:48:14.132Z,1021.54
2016-12-15T13:49:25.121Z,1021.49
2016-12-15T13:50:36.313Z,1021.49
2016-12-15T13:51:47.306Z,1021.47
2016-12-15T13:52:58.298Z,1021.48
2016-12-15T13:54:09.284Z,1021.44
2016-12-15T13:55:20.277Z,1021.44
2016-12-15T13:56:31.472Z,1021.44
2016-12-15T13:57:42.456Z,1021.42
2016-12-15T13:58:53.470Z,1021.39
2016-12-15T14:00:04.512Z,1021.39
2016-12-15T14:01:15.509Z,1021.35
2016-12-15T14:02:26.507Z,1021.37
2016-12-15T14:03:37.694Z,1021.34
2016-12-15T14:04:48.891Z,1021.33
2016-12-15T14:05:59.923Z,1021.35
2016-12-15T14:07:10.909Z,1021.37
2016-12-15T14:08:21.895Z,1021.35
2016-12-15T14:09:32.876Z,1021.37
2016-12-15T14:10:43.865Z,1021.35
2016-12-15T14:11:54.905Z,1021.33
2016-12-15T14:13:05.894Z,1021.32
2016-12-15T14:14:16.880Z,1021.38
2016-12-15T14:15:27.868Z,1021.31
2016-12-15T14:16:38.850Z,1021.37
2016-12-15T14:17:50.085Z,1021.35
2016-12-15T14:19:01.100Z,1021.35
2016-12-15T14:20:12.089Z,1021.34
2016-12-15T14:21:23.073Z,1021.34
2016-12-15T14:22:34.054Z,1021.37